Quick Links (Output Below):   Max & Min Temps   /   Climate Reports   /   Zone Forecasts
River Forecasts   /   Forestry Forecasts   /   Aviation Forecasts   /   Radars   /   Features

Terminal Aerodrome Forecast (Fayetteville)

Pick a Site:
Arkadelphia | El Dorado | Fayetteville | Fort Smith | Harrison | Highfill | Hot Springs | Jonesboro
Little Rock | Monticello | Mountain Home | Pine Bluff | Texarkana

KFYV 062335Z 0700/0724 VRB02KT P6SM SCT040
     FM070600 00000KT 3SM BR SCT005
     FM070800 00000KT 1SM BR BKN008
      TEMPO 0709/0713 1/4SM FG VV001
     FM071300 VRB03KT 3SM BR SCT005 BKN025
     FM071500 02004KT P6SM BKN035=

 Latest METARs (Observations) 
How to Decode METARs
00Z KFYV 062353Z 10003KT 10SM SCT048 21/17 A3010 RMK AO2 SLP186
         T02110172 10256 20211 55002
***** Today's Observations (Above) *****

23Z KFYV 062253Z 00000KT 10SM CLR 23/17 A3010 RMK AO2 SLP185
22Z KFYV 062153Z 04004KT 10SM BKN041 OVC049 25/16 A3010 RMK AO2 SLP186
21Z KFYV 062053Z 07005KT 10SM BKN040 OVC048 24/16 A3011 RMK AO2 SLP187
         T02440161 56021
20Z KFYV 061953Z 00000KT 10SM BKN036 24/16 A3012 RMK AO2 SLP191
19Z KFYV 061853Z VRB03KT 10SM FEW033 24/16 A3014 RMK AO2 SLP200
18Z KFYV 061753Z 35003KT 10SM CLR 23/16 A3017 RMK AO2 SLP210 T02330161
         10233 20117 58007
17Z KFYV 061653Z 03003KT 10SM CLR 22/16 A3019 RMK AO2 SLP217
16Z KFYV 061553Z 00000KT 10SM CLR 19/16 A3020 RMK AO2 SLP220
15Z KFYV 061453Z 00000KT 5SM BR BKN003 14/14 A3019 RMK AO2 SLP221
         T01390139 50007
***** Yesterday's Observations (Above) *****

Back to Main Page

USA.gov is the U.S. government's official web portal to all federal, state and local government web resources and services.